createdAt,value
2018-10-11T00:00:52.677Z,1019.1
2018-10-11T00:05:57.495Z,1019.2
2018-10-11T00:10:57.364Z,1019.2
2018-10-11T00:16:10.135Z,1019.2
2018-10-11T00:21:09.795Z,1019.1
2018-10-11T00:26:09.846Z,1019.2
2018-10-11T00:31:10.130Z,1019.2
2018-10-11T00:36:10.007Z,1019.2
2018-10-11T00:41:09.806Z,1019.2
2018-10-11T00:46:10.021Z,1019
2018-10-11T00:51:12.978Z,1019.1
2018-10-11T00:56:12.898Z,1019.1
2018-10-11T01:01:24.471Z,1019.2
2018-10-11T01:06:24.209Z,1019.2
2018-10-11T01:11:24.363Z,1019.2
2018-10-11T01:16:24.378Z,1019.2
2018-10-11T01:21:24.293Z,1019.2
2018-10-11T01:26:24.332Z,1019.3
2018-10-11T01:31:24.404Z,1019.4
2018-10-11T01:36:24.242Z,1019.4
2018-10-11T01:41:24.231Z,1019.3
2018-10-11T01:46:36.277Z,1019.4
2018-10-11T01:51:35.985Z,1019.4
2018-10-11T01:56:36.407Z,1019.3
2018-10-11T02:01:36.231Z,1019.4
2018-10-11T02:06:36.156Z,1019.5
2018-10-11T02:11:36.183Z,1019.4
2018-10-11T02:16:36.324Z,1019.5
2018-10-11T02:21:36.970Z,1019.5
2018-10-11T02:26:36.997Z,1019.4
2018-10-11T02:31:49.460Z,1019.4
2018-10-11T02:36:49.154Z,1019.3
2018-10-11T02:41:49.083Z,1019.4
2018-10-11T02:46:49.117Z,1019.1
2018-10-11T02:51:49.176Z,1018.9
2018-10-11T02:56:48.979Z,1019
2018-10-11T03:01:49.113Z,1018.7
2018-10-11T03:06:49.157Z,1018.7
2018-10-11T03:11:49.189Z,1018.7
2018-10-11T03:16:49.119Z,1018.8
2018-10-11T03:21:49.152Z,1018.8
2018-10-11T03:26:49.295Z,1018.8
2018-10-11T03:31:52.190Z,1018.9
2018-10-11T03:36:52.223Z,1018.8
2018-10-11T03:42:02.600Z,1018.8
2018-10-11T03:47:02.435Z,1018.7
2018-10-11T03:52:02.470Z,1018.8
2018-10-11T03:57:02.390Z,1018.7
2018-10-11T04:02:02.358Z,1018.7
2018-10-11T04:07:02.357Z,1018.7
2018-10-11T04:12:02.361Z,1018.6
2018-10-11T04:17:03.552Z,1018.7
2018-10-11T04:22:03.395Z,1018.6
2018-10-11T04:27:16.296Z,1018.6
2018-10-11T04:32:16.209Z,1018.6
2018-10-11T04:37:15.992Z,1018.5
2018-10-11T04:42:16.038Z,1018.6
2018-10-11T04:47:16.135Z,1018.7
2018-10-11T04:52:16.035Z,1018.7
2018-10-11T04:57:16.168Z,1018.6
2018-10-11T05:02:16.044Z,1018.6
2018-10-11T05:07:16.294Z,1018.6
2018-10-11T05:12:16.028Z,1018.6
2018-10-11T05:17:16.153Z,1018.6
2018-10-11T05:22:16.239Z,1018.6
2018-10-11T05:27:16.776Z,1018.6
2018-10-11T05:32:16.931Z,1018.7
2018-10-11T05:37:29.655Z,1018.6
2018-10-11T05:42:29.403Z,1018.7
2018-10-11T05:47:29.390Z,1018.6
2018-10-11T05:52:29.563Z,1018.7
2018-10-11T05:57:29.618Z,1018.8
2018-10-11T06:02:29.527Z,1018.9
2018-10-11T06:07:29.569Z,1018.8
2018-10-11T06:12:30.863Z,1018.7
2018-10-11T06:17:30.772Z,1018.7
2018-10-11T06:22:43.304Z,1018.6
2018-10-11T06:27:43.247Z,1018.5
2018-10-11T06:32:43.256Z,1018.6
2018-10-11T06:37:43.254Z,1018.6
2018-10-11T06:42:43.582Z,1018.6
2018-10-11T06:47:43.025Z,1018.6
2018-10-11T06:52:43.142Z,1018.5
2018-10-11T06:57:43.993Z,1018.5
2018-10-11T07:02:43.690Z,1018.5
2018-10-11T07:07:56.772Z,1018.4
2018-10-11T07:12:56.735Z,1018.4
2018-10-11T07:17:56.805Z,1018.4
2018-10-11T07:22:56.724Z,1018.4
2018-10-11T07:27:56.734Z,1018.3
2018-10-11T07:32:56.667Z,1018.3
2018-10-11T07:37:56.625Z,1018.2
2018-10-11T07:42:57.198Z,1018.2
2018-10-11T07:47:57.069Z,1018.1
2018-10-11T07:53:10.381Z,1018.1
2018-10-11T07:58:10.077Z,1018
2018-10-11T08:03:09.991Z,1018
2018-10-11T08:08:10.269Z,1017.9
2018-10-11T08:13:09.965Z,1017.9
2018-10-11T08:18:09.996Z,1017.9
2018-10-11T08:23:09.824Z,1017.9
2018-10-11T08:28:11.119Z,1017.9
2018-10-11T08:33:11.219Z,1017.8
2018-10-11T08:38:24.075Z,1017.7
2018-10-11T08:43:23.861Z,1017.7
2018-10-11T08:48:23.785Z,1017.6
2018-10-11T08:53:23.551Z,1017.7
2018-10-11T08:58:23.477Z,1017.6
2018-10-11T09:03:24.137Z,1017.5
2018-10-11T09:08:23.484Z,1017.5
2018-10-11T09:13:24.016Z,1017.5
2018-10-11T09:18:23.805Z,1017.5
2018-10-11T09:23:36.148Z,1017.4
2018-10-11T09:28:39.064Z,1017.4
2018-10-11T09:33:35.986Z,1017.3
2018-10-11T09:38:35.939Z,1017.2
2018-10-11T09:43:36.047Z,1017.2
2018-10-11T09:48:36.359Z,1017.2
2018-10-11T09:53:36.037Z,1017
2018-10-11T09:58:36.796Z,1017.1
2018-10-11T10:03:36.553Z,1017
2018-10-11T10:08:49.697Z,1016.9
2018-10-11T10:13:49.561Z,1016.7
2018-10-11T10:18:49.605Z,1016.9
2018-10-11T10:23:49.707Z,1016.8
2018-10-11T10:28:49.567Z,1016.8
2018-10-11T10:33:49.731Z,1016.6
2018-10-11T10:38:49.615Z,1016.6
2018-10-11T10:43:52.126Z,1016.5
2018-10-11T10:48:52.124Z,1016.5
2018-10-11T10:54:02.822Z,1016.3
2018-10-11T10:59:02.861Z,1016.2
2018-10-11T11:04:02.809Z,1016
2018-10-11T11:09:02.786Z,1015.9
2018-10-11T11:14:02.763Z,1015.9
2018-10-11T11:19:03.182Z,1015.8
2018-10-11T11:24:02.743Z,1015.7
2018-10-11T11:29:04.924Z,1015.7
2018-10-11T11:34:04.740Z,1015.5
2018-10-11T11:39:17.597Z,1015.5
2018-10-11T11:44:17.278Z,1015.4
2018-10-11T11:49:17.292Z,1015.4
2018-10-11T11:54:17.497Z,1015.4
2018-10-11T11:59:17.802Z,1015.4
2018-10-11T12:04:17.448Z,1015.4
2018-10-11T12:09:17.489Z,1015.2
2018-10-11T12:14:18.856Z,1015.1
2018-10-11T12:19:18.786Z,1015.2
2018-10-11T12:24:34.069Z,1015.2
2018-10-11T12:29:36.794Z,1015.1
2018-10-11T12:34:33.926Z,1015.2
2018-10-11T12:39:33.844Z,1015.1
2018-10-11T12:44:33.751Z,1015
2018-10-11T12:49:47.449Z,1014.9
2018-10-11T12:54:33.764Z,1014.9
2018-10-11T12:59:34.413Z,1015
2018-10-11T13:04:34.380Z,1014.9
2018-10-11T13:09:46.763Z,1015
2018-10-11T13:14:46.610Z,1015
2018-10-11T13:19:46.615Z,1015
2018-10-11T13:24:49.869Z,1015
2018-10-11T13:29:46.517Z,1014.9
2018-10-11T13:34:47.243Z,1015
2018-10-11T13:39:58.267Z,1015
2018-10-11T13:44:52.316Z,1015.1
2018-10-11T13:49:52.028Z,1015.1
2018-10-11T13:55:15.799Z,1015
2018-10-11T14:00:01.912Z,1014.9
2018-10-11T14:05:02.009Z,1014.9
2018-10-11T14:10:01.898Z,1015
2018-10-11T14:15:01.902Z,1014.9
2018-10-11T14:20:01.886Z,1015
2018-10-11T14:25:02.034Z,1015
2018-10-11T14:30:02.342Z,1014.9
2018-10-11T14:35:02.259Z,1015
2018-10-11T14:40:15.072Z,1015
2018-10-11T14:45:14.830Z,1015
2018-10-11T14:50:15.138Z,1014.9
2018-10-11T14:55:14.886Z,1014.9
2018-10-11T15:00:15.697Z,1015
2018-10-11T15:05:15.274Z,1015
2018-10-11T15:10:14.981Z,1015
2018-10-11T15:15:16.090Z,1015
2018-10-11T15:20:15.745Z,1014.9
2018-10-11T15:25:27.967Z,1014.9
2018-10-11T15:30:27.722Z,1014.9
2018-10-11T15:35:27.742Z,1015
2018-10-11T15:40:27.745Z,1015.1
2018-10-11T15:45:28.124Z,1015.3
2018-10-11T15:50:27.846Z,1015.2
2018-10-11T15:55:27.856Z,1015.3
2018-10-11T16:00:28.516Z,1015.4
2018-10-11T16:05:28.601Z,1015.4
2018-10-11T16:10:40.958Z,1015.4
2018-10-11T16:15:40.860Z,1015.5
2018-10-11T16:20:40.855Z,1015.5
2018-10-11T16:25:40.839Z,1015.7
2018-10-11T16:30:40.969Z,1015.6
2018-10-11T16:35:40.705Z,1015.8
2018-10-11T16:40:41.128Z,1015.9
2018-10-11T16:45:46.110Z,1016.1
2018-10-11T16:50:45.017Z,1016.1
2018-10-11T16:55:58.275Z,1016.1
2018-10-11T17:00:57.988Z,1016.2
2018-10-11T17:05:58.618Z,1016.2
2018-10-11T17:10:58.007Z,1016.3
2018-10-11T17:15:58.061Z,1016.3
2018-10-11T17:20:58.024Z,1016.3
2018-10-11T17:25:57.985Z,1016.3
2018-10-11T17:30:58.023Z,1016.5
2018-10-11T17:35:57.996Z,1016.6
2018-10-11T17:41:14.951Z,1016.6
2018-10-11T17:46:14.652Z,1016.6
2018-10-11T17:51:16.559Z,1016.6
2018-10-11T17:56:16.496Z,1016.6
2018-10-11T18:01:28.383Z,1016.6
2018-10-11T18:06:28.377Z,1016.7
2018-10-11T18:11:28.112Z,1016.6
2018-10-11T18:16:28.298Z,1016.7
2018-10-11T18:21:28.577Z,1016.8
2018-10-11T18:26:28.303Z,1016.8
2018-10-11T18:31:28.343Z,1016.8
2018-10-11T18:36:28.949Z,1016.8
2018-10-11T18:41:28.820Z,1016.8
2018-10-11T18:46:41.967Z,1016.8
2018-10-11T18:51:41.664Z,1016.9
2018-10-11T18:56:41.701Z,1017
2018-10-11T19:01:41.691Z,1016.9
2018-10-11T19:06:41.952Z,1016.9
2018-10-11T19:11:41.584Z,1017.2
2018-10-11T19:16:41.831Z,1017.1
2018-10-11T19:21:42.177Z,1017.1
2018-10-11T19:26:41.974Z,1017.1
2018-10-11T19:31:56.395Z,1017.2
2018-10-11T19:36:55.768Z,1017.2
2018-10-11T19:41:57.149Z,1017.1
2018-10-11T19:46:55.614Z,1017.2
2018-10-11T19:51:56.011Z,1017.2
2018-10-11T19:56:55.615Z,1017.2
2018-10-11T20:01:55.955Z,1017.2
2018-10-11T20:06:56.306Z,1017.3
2018-10-11T20:11:56.227Z,1017.4
2018-10-11T20:17:08.810Z,1017.3
2018-10-11T20:22:08.582Z,1017.5
2018-10-11T20:27:08.630Z,1017.5
2018-10-11T20:32:08.364Z,1017.5
2018-10-11T20:37:08.344Z,1017.6
2018-10-11T20:42:08.480Z,1017.6
2018-10-11T20:47:08.448Z,1017.6
2018-10-11T20:52:08.616Z,1017.6
2018-10-11T20:57:08.644Z,1017.7
2018-10-11T21:02:21.504Z,1017.7
2018-10-11T21:07:21.255Z,1017.7
2018-10-11T21:12:21.332Z,1017.9
2018-10-11T21:17:21.213Z,1017.9
2018-10-11T21:22:21.200Z,1017.9
2018-10-11T21:27:21.213Z,1018.1
2018-10-11T21:32:21.328Z,1018.1
2018-10-11T21:37:21.346Z,1018.1
2018-10-11T21:42:21.248Z,1018.2
2018-10-11T21:47:21.425Z,1018.2
2018-10-11T21:52:21.338Z,1018.2
2018-10-11T21:57:21.215Z,1018.3
2018-10-11T22:02:21.947Z,1018.3
2018-10-11T22:07:21.694Z,1018.4
2018-10-11T22:12:35.529Z,1018.5
2018-10-11T22:17:35.237Z,1018.6
2018-10-11T22:22:35.408Z,1018.6
2018-10-11T22:27:35.567Z,1018.6
2018-10-11T22:32:35.253Z,1018.7
2018-10-11T22:37:35.240Z,1018.7
2018-10-11T22:42:35.422Z,1018.9
2018-10-11T22:47:35.267Z,1018.9
2018-10-11T22:52:35.283Z,1019
2018-10-11T22:57:47.427Z,1019.1
2018-10-11T23:02:47.362Z,1019.1
2018-10-11T23:07:47.265Z,1019.2
2018-10-11T23:12:47.152Z,1019.3
2018-10-11T23:17:47.142Z,1019.3
2018-10-11T23:22:47.725Z,1019.4
2018-10-11T23:27:47.744Z,1019.5
2018-10-11T23:32:47.663Z,1019.6
2018-10-11T23:37:47.691Z,1019.7
2018-10-11T23:42:47.627Z,1019.6
2018-10-11T23:47:48.546Z,1019.7
2018-10-11T23:52:48.764Z,1019.8
2018-10-11T23:57:48.730Z,1019.8
